sensor_id;sensor_type;location;lat;lon;timestamp;temperature;humidity
49379;DHT22;35254;47.990;-1.608;2022-12-18T00:01:17;17.80;37.70
49379;DHT22;35254;47.990;-1.608;2022-12-18T00:03:42;17.80;37.90
49379;DHT22;35254;47.990;-1.608;2022-12-18T00:06:08;17.80;37.60
49379;DHT22;35254;47.990;-1.608;2022-12-18T00:08:34;17.80;37.80
49379;DHT22;35254;47.990;-1.608;2022-12-18T00:11:07;17.80;37.50
49379;DHT22;35254;47.990;-1.608;2022-12-18T00:13:34;17.70;37.70
49379;DHT22;35254;47.990;-1.608;2022-12-18T00:16:05;17.80;37.80
49379;DHT22;35254;47.990;-1.608;2022-12-18T00:18:32;17.70;37.70
49379;DHT22;35254;47.990;-1.608;2022-12-18T00:21:03;17.70;37.60
49379;DHT22;35254;47.990;-1.608;2022-12-18T00:23:30;17.70;37.60
49379;DHT22;35254;47.990;-1.608;2022-12-18T00:25:59;17.70;37.70
49379;DHT22;35254;47.990;-1.608;2022-12-18T00:28:25;17.70;37.60
49379;DHT22;35254;47.990;-1.608;2022-12-18T00:30:58;17.70;37.50
49379;DHT22;35254;47.990;-1.608;2022-12-18T00:33:24;17.70;37.60
49379;DHT22;35254;47.990;-1.608;2022-12-18T00:35:49;17.70;37.60
49379;DHT22;35254;47.990;-1.608;2022-12-18T00:38:15;17.70;37.50
49379;DHT22;35254;47.990;-1.608;2022-12-18T00:40:41;17.70;37.50
49379;DHT22;35254;47.990;-1.608;2022-12-18T00:43:09;17.70;37.50
49379;DHT22;35254;47.990;-1.608;2022-12-18T00:45:35;17.70;37.40
49379;DHT22;35254;47.990;-1.608;2022-12-18T00:48:01;17.70;37.40
49379;DHT22;35254;47.990;-1.608;2022-12-18T00:50:26;17.60;37.40
49379;DHT22;35254;47.990;-1.608;2022-12-18T00:52:52;17.70;37.30
49379;DHT22;35254;47.990;-1.608;2022-12-18T00:55:18;17.70;37.20
49379;DHT22;35254;47.990;-1.608;2022-12-18T00:57:44;17.60;37.10
49379;DHT22;35254;47.990;-1.608;2022-12-18T01:00:14;17.60;37.30
49379;DHT22;35254;47.990;-1.608;2022-12-18T01:02:40;17.60;37.30
49379;DHT22;35254;47.990;-1.608;2022-12-18T01:05:07;17.60;37.20
49379;DHT22;35254;47.990;-1.608;2022-12-18T01:07:32;17.60;37.10
49379;DHT22;35254;47.990;-1.608;2022-12-18T01:09:58;17.60;37.20
49379;DHT22;35254;47.990;-1.608;2022-12-18T01:12:23;17.50;37.20
49379;DHT22;35254;47.990;-1.608;2022-12-18T01:14:49;17.50;37.20
49379;DHT22;35254;47.990;-1.608;2022-12-18T01:17:15;17.50;37.30
49379;DHT22;35254;47.990;-1.608;2022-12-18T01:19:40;17.50;37.10
49379;DHT22;35254;47.990;-1.608;2022-12-18T01:22:07;17.50;37.30
49379;DHT22;35254;47.990;-1.608;2022-12-18T01:24:32;17.50;37.10
49379;DHT22;35254;47.990;-1.608;2022-12-18T01:26:58;17.50;37.20
49379;DHT22;35254;47.990;-1.608;2022-12-18T01:29:24;17.50;37.30
49379;DHT22;35254;47.990;-1.608;2022-12-18T01:31:49;17.50;37.10
49379;DHT22;35254;47.990;-1.608;2022-12-18T01:34:15;17.50;37.20
49379;DHT22;35254;47.990;-1.608;2022-12-18T01:36:41;17.50;37.00
49379;DHT22;35254;47.990;-1.608;2022-12-18T01:39:12;17.50;37.00
49379;DHT22;35254;47.990;-1.608;2022-12-18T01:41:38;17.50;37.00
49379;DHT22;35254;47.990;-1.608;2022-12-18T01:47:30;17.50;36.80
49379;DHT22;35254;47.990;-1.608;2022-12-18T01:49:59;17.40;36.90
49379;DHT22;35254;47.990;-1.608;2022-12-18T01:52:28;17.50;36.90
49379;DHT22;35254;47.990;-1.608;2022-12-18T01:54:56;17.50;36.70
49379;DHT22;35254;47.990;-1.608;2022-12-18T01:57:23;17.50;36.80
49379;DHT22;35254;47.990;-1.608;2022-12-18T01:59:52;17.50;36.80
49379;DHT22;35254;47.990;-1.608;2022-12-18T02:02:20;17.40;36.90
49379;DHT22;35254;47.990;-1.608;2022-12-18T02:04:46;17.50;36.90
49379;DHT22;35254;47.990;-1.608;2022-12-18T02:07:33;17.50;36.90
49379;DHT22;35254;47.990;-1.608;2022-12-18T02:10:31;17.40;36.80
49379;DHT22;35254;47.990;-1.608;2022-12-18T02:18:44;17.40;36.70
49379;DHT22;35254;47.990;-1.608;2022-12-18T02:24:16;17.40;36.60
49379;DHT22;35254;47.990;-1.608;2022-12-18T02:26:51;17.40;36.40
49379;DHT22;35254;47.990;-1.608;2022-12-18T02:29:25;17.40;36.50
49379;DHT22;35254;47.990;-1.608;2022-12-18T02:31:58;17.40;36.40
49379;DHT22;35254;47.990;-1.608;2022-12-18T02:34:29;17.40;36.50
49379;DHT22;35254;47.990;-1.608;2022-12-18T02:36:56;17.40;36.40
49379;DHT22;35254;47.990;-1.608;2022-12-18T02:39:24;17.40;36.50
49379;DHT22;35254;47.990;-1.608;2022-12-18T02:41:50;17.40;36.40
49379;DHT22;35254;47.990;-1.608;2022-12-18T02:44:16;17.40;36.60
49379;DHT22;35254;47.990;-1.608;2022-12-18T02:46:53;17.40;36.50
49379;DHT22;35254;47.990;-1.608;2022-12-18T02:49:36;17.40;36.50
49379;DHT22;35254;47.990;-1.608;2022-12-18T02:57:20;17.40;36.70
49379;DHT22;35254;47.990;-1.608;2022-12-18T03:05:00;17.40;36.70
49379;DHT22;35254;47.990;-1.608;2022-12-18T03:07:37;17.40;36.80
49379;DHT22;35254;47.990;-1.608;2022-12-18T03:10:05;17.40;36.80
49379;DHT22;35254;47.990;-1.608;2022-12-18T03:12:35;17.40;36.80
49379;DHT22;35254;47.990;-1.608;2022-12-18T03:15:18;17.30;36.90
49379;DHT22;35254;47.990;-1.608;2022-12-18T03:17:51;17.40;36.80
49379;DHT22;35254;47.990;-1.608;2022-12-18T03:20:20;17.40;37.50
49379;DHT22;35254;47.990;-1.608;2022-12-18T03:22:51;17.70;38.60
49379;DHT22;35254;47.990;-1.608;2022-12-18T03:25:19;17.90;37.80
49379;DHT22;35254;47.990;-1.608;2022-12-18T03:27:47;18.00;37.20
49379;DHT22;35254;47.990;-1.608;2022-12-18T03:30:15;18.00;37.20
49379;DHT22;35254;47.990;-1.608;2022-12-18T03:32:52;18.10;37.60
49379;DHT22;35254;47.990;-1.608;2022-12-18T03:35:30;18.20;38.50
49379;DHT22;35254;47.990;-1.608;2022-12-18T03:37:58;18.30;39.00
49379;DHT22;35254;47.990;-1.608;2022-12-18T03:40:29;18.40;39.00
49379;DHT22;35254;47.990;-1.608;2022-12-18T03:43:02;18.40;38.40
49379;DHT22;35254;47.990;-1.608;2022-12-18T03:45:42;18.30;37.70
49379;DHT22;35254;47.990;-1.608;2022-12-18T03:50:57;18.30;37.60
49379;DHT22;35254;47.990;-1.608;2022-12-18T03:53:58;18.20;37.60
49379;DHT22;35254;47.990;-1.608;2022-12-18T03:56:29;18.20;37.40
49379;DHT22;35254;47.990;-1.608;2022-12-18T03:58:57;18.20;37.40
49379;DHT22;35254;47.990;-1.608;2022-12-18T04:01:30;18.10;37.10
49379;DHT22;35254;47.990;-1.608;2022-12-18T04:03:59;18.10;37.10
49379;DHT22;35254;47.990;-1.608;2022-12-18T04:06:26;18.00;37.10
49379;DHT22;35254;47.990;-1.608;2022-12-18T04:08:53;18.00;37.20
49379;DHT22;35254;47.990;-1.608;2022-12-18T04:11:18;18.00;37.30
49379;DHT22;35254;47.990;-1.608;2022-12-18T04:13:44;17.90;37.10
49379;DHT22;35254;47.990;-1.608;2022-12-18T04:16:10;17.90;37.10
49379;DHT22;35254;47.990;-1.608;2022-12-18T04:18:36;17.90;37.10
49379;DHT22;35254;47.990;-1.608;2022-12-18T04:21:03;17.90;37.10
49379;DHT22;35254;47.990;-1.608;2022-12-18T04:23:28;17.90;36.90
49379;DHT22;35254;47.990;-1.608;2022-12-18T04:25:54;17.90;36.90
49379;DHT22;35254;47.990;-1.608;2022-12-18T04:28:20;17.90;37.10
49379;DHT22;35254;47.990;-1.608;2022-12-18T04:30:46;17.90;37.00
49379;DHT22;35254;47.990;-1.608;2022-12-18T04:33:12;17.90;37.00
49379;DHT22;35254;47.990;-1.608;2022-12-18T04:35:39;17.90;36.90
49379;DHT22;35254;47.990;-1.608;2022-12-18T04:38:06;17.90;37.20
49379;DHT22;35254;47.990;-1.608;2022-12-18T04:40:35;17.90;37.10
49379;DHT22;35254;47.990;-1.608;2022-12-18T04:43:01;17.90;37.10
49379;DHT22;35254;47.990;-1.608;2022-12-18T04:45:27;17.90;37.00
49379;DHT22;35254;47.990;-1.608;2022-12-18T04:47:52;17.80;37.50
49379;DHT22;35254;47.990;-1.608;2022-12-18T04:50:18;17.80;37.40
49379;DHT22;35254;47.990;-1.608;2022-12-18T04:52:43;17.90;37.00
49379;DHT22;35254;47.990;-1.608;2022-12-18T04:55:09;17.80;37.40
49379;DHT22;35254;47.990;-1.608;2022-12-18T04:57:35;17.80;37.30
49379;DHT22;35254;47.990;-1.608;2022-12-18T05:00:00;17.80;37.30
49379;DHT22;35254;47.990;-1.608;2022-12-18T05:02:26;17.80;37.20
49379;DHT22;35254;47.990;-1.608;2022-12-18T05:04:52;17.80;37.10
49379;DHT22;35254;47.990;-1.608;2022-12-18T05:07:17;17.80;37.20
49379;DHT22;35254;47.990;-1.608;2022-12-18T05:09:43;17.80;37.10
49379;DHT22;35254;47.990;-1.608;2022-12-18T05:12:09;17.80;37.20
49379;DHT22;35254;47.990;-1.608;2022-12-18T05:14:34;17.80;36.90
49379;DHT22;35254;47.990;-1.608;2022-12-18T05:17:00;17.80;36.90
49379;DHT22;35254;47.990;-1.608;2022-12-18T05:19:26;17.80;37.20
49379;DHT22;35254;47.990;-1.608;2022-12-18T05:21:51;17.90;37.20
49379;DHT22;35254;47.990;-1.608;2022-12-18T05:24:17;17.80;37.20
49379;DHT22;35254;47.990;-1.608;2022-12-18T05:26:42;17.80;37.20
49379;DHT22;35254;47.990;-1.608;2022-12-18T05:29:08;17.80;37.10
49379;DHT22;35254;47.990;-1.608;2022-12-18T05:31:37;17.70;37.30
49379;DHT22;35254;47.990;-1.608;2022-12-18T05:34:03;17.70;37.30
49379;DHT22;35254;47.990;-1.608;2022-12-18T05:36:29;17.70;37.40
49379;DHT22;35254;47.990;-1.608;2022-12-18T05:38:54;17.80;37.70
49379;DHT22;35254;47.990;-1.608;2022-12-18T05:41:20;17.80;37.40
49379;DHT22;35254;47.990;-1.608;2022-12-18T05:43:46;17.80;37.30
49379;DHT22;35254;47.990;-1.608;2022-12-18T05:46:14;17.80;37.10
49379;DHT22;35254;47.990;-1.608;2022-12-18T05:48:40;17.80;37.30
49379;DHT22;35254;47.990;-1.608;2022-12-18T05:51:08;17.80;37.10
49379;DHT22;35254;47.990;-1.608;2022-12-18T05:53:35;17.80;37.00
49379;DHT22;35254;47.990;-1.608;2022-12-18T05:56:03;17.70;37.00
49379;DHT22;35254;47.990;-1.608;2022-12-18T05:58:30;17.70;37.20
49379;DHT22;35254;47.990;-1.608;2022-12-18T06:00:56;17.70;37.20
49379;DHT22;35254;47.990;-1.608;2022-12-18T06:03:22;17.70;37.20
49379;DHT22;35254;47.990;-1.608;2022-12-18T06:05:48;17.70;37.10
49379;DHT22;35254;47.990;-1.608;2022-12-18T06:08:14;17.70;37.00
49379;DHT22;35254;47.990;-1.608;2022-12-18T06:10:40;17.70;37.00
49379;DHT22;35254;47.990;-1.608;2022-12-18T06:13:06;17.80;36.90
49379;DHT22;35254;47.990;-1.608;2022-12-18T06:15:32;17.70;37.00
49379;DHT22;35254;47.990;-1.608;2022-12-18T06:17:59;17.70;37.10
49379;DHT22;35254;47.990;-1.608;2022-12-18T06:20:25;17.70;37.00
49379;DHT22;35254;47.990;-1.608;2022-12-18T06:22:51;17.70;36.80
49379;DHT22;35254;47.990;-1.608;2022-12-18T06:25:16;17.70;37.00
49379;DHT22;35254;47.990;-1.608;2022-12-18T06:27:42;17.70;37.00
49379;DHT22;35254;47.990;-1.608;2022-12-18T06:30:08;17.70;36.90
49379;DHT22;35254;47.990;-1.608;2022-12-18T06:32:34;17.70;36.90
49379;DHT22;35254;47.990;-1.608;2022-12-18T06:35:00;17.70;36.90
49379;DHT22;35254;47.990;-1.608;2022-12-18T06:37:26;17.70;36.90
49379;DHT22;35254;47.990;-1.608;2022-12-18T06:39:52;17.70;36.90
49379;DHT22;35254;47.990;-1.608;2022-12-18T06:42:18;17.70;36.80
49379;DHT22;35254;47.990;-1.608;2022-12-18T06:44:44;17.80;36.80
49379;DHT22;35254;47.990;-1.608;2022-12-18T06:47:10;17.80;36.80
49379;DHT22;35254;47.990;-1.608;2022-12-18T06:49:35;17.80;36.90
49379;DHT22;35254;47.990;-1.608;2022-12-18T06:52:01;17.80;36.80
49379;DHT22;35254;47.990;-1.608;2022-12-18T06:54:27;17.80;36.80
49379;DHT22;35254;47.990;-1.608;2022-12-18T06:56:52;17.80;36.80
49379;DHT22;35254;47.990;-1.608;2022-12-18T06:59:18;17.80;36.80
49379;DHT22;35254;47.990;-1.608;2022-12-18T07:01:44;17.80;36.70
49379;DHT22;35254;47.990;-1.608;2022-12-18T07:04:09;17.80;36.90
49379;DHT22;35254;47.990;-1.608;2022-12-18T07:06:35;17.80;36.70
49379;DHT22;35254;47.990;-1.608;2022-12-18T07:09:01;17.80;36.80
49379;DHT22;35254;47.990;-1.608;2022-12-18T07:11:26;17.80;36.80
49379;DHT22;35254;47.990;-1.608;2022-12-18T07:13:52;17.80;36.80
49379;DHT22;35254;47.990;-1.608;2022-12-18T07:16:19;17.80;36.80
49379;DHT22;35254;47.990;-1.608;2022-12-18T07:18:45;17.80;36.80
49379;DHT22;35254;47.990;-1.608;2022-12-18T07:21:14;17.80;36.80
49379;DHT22;35254;47.990;-1.608;2022-12-18T07:23:40;17.80;37.00
49379;DHT22;35254;47.990;-1.608;2022-12-18T07:26:11;17.90;37.10
49379;DHT22;35254;47.990;-1.608;2022-12-18T07:28:39;18.00;37.10
49379;DHT22;35254;47.990;-1.608;2022-12-18T07:31:06;18.10;37.00
49379;DHT22;35254;47.990;-1.608;2022-12-18T07:33:33;18.10;37.00
49379;DHT22;35254;47.990;-1.608;2022-12-18T07:35:59;18.10;36.90
49379;DHT22;35254;47.990;-1.608;2022-12-18T07:38:25;18.10;36.90
49379;DHT22;35254;47.990;-1.608;2022-12-18T07:40:51;18.20;36.90
49379;DHT22;35254;47.990;-1.608;2022-12-18T07:43:16;18.20;37.00
49379;DHT22;35254;47.990;-1.608;2022-12-18T07:45:43;18.20;36.90
49379;DHT22;35254;47.990;-1.608;2022-12-18T07:48:09;18.20;37.00
49379;DHT22;35254;47.990;-1.608;2022-12-18T07:50:34;18.20;37.00
49379;DHT22;35254;47.990;-1.608;2022-12-18T07:53:00;18.20;37.10
49379;DHT22;35254;47.990;-1.608;2022-12-18T07:55:29;18.20;37.10
49379;DHT22;35254;47.990;-1.608;2022-12-18T07:57:55;18.20;37.00
49379;DHT22;35254;47.990;-1.608;2022-12-18T08:00:21;18.20;37.00
49379;DHT22;35254;47.990;-1.608;2022-12-18T08:02:47;18.20;37.20
49379;DHT22;35254;47.990;-1.608;2022-12-18T08:05:12;18.20;37.20
49379;DHT22;35254;47.990;-1.608;2022-12-18T08:07:39;18.20;37.30
49379;DHT22;35254;47.990;-1.608;2022-12-18T08:10:05;18.20;37.50
49379;DHT22;35254;47.990;-1.608;2022-12-18T08:12:31;18.20;37.60
49379;DHT22;35254;47.990;-1.608;2022-12-18T08:14:57;18.20;37.80
49379;DHT22;35254;47.990;-1.608;2022-12-18T08:17:22;18.20;37.70
49379;DHT22;35254;47.990;-1.608;2022-12-18T08:19:48;18.20;37.80
49379;DHT22;35254;47.990;-1.608;2022-12-18T08:22:13;18.20;37.80
49379;DHT22;35254;47.990;-1.608;2022-12-18T08:24:39;18.20;37.90
49379;DHT22;35254;47.990;-1.608;2022-12-18T08:27:05;18.30;38.30
49379;DHT22;35254;47.990;-1.608;2022-12-18T08:29:30;18.40;38.00
49379;DHT22;35254;47.990;-1.608;2022-12-18T08:31:57;18.40;41.40
49379;DHT22;35254;47.990;-1.608;2022-12-18T08:34:23;18.40;41.70
49379;DHT22;35254;47.990;-1.608;2022-12-18T08:36:48;18.40;41.50
49379;DHT22;35254;47.990;-1.608;2022-12-18T08:39:14;18.40;41.50
49379;DHT22;35254;47.990;-1.608;2022-12-18T08:41:39;18.40;41.70
49379;DHT22;35254;47.990;-1.608;2022-12-18T08:44:07;18.50;42.70
49379;DHT22;35254;47.990;-1.608;2022-12-18T08:47:06;18.40;47.20
49379;DHT22;35254;47.990;-1.608;2022-12-18T08:49:32;18.50;47.20
49379;DHT22;35254;47.990;-1.608;2022-12-18T08:51:58;18.40;44.10
49379;DHT22;35254;47.990;-1.608;2022-12-18T08:54:24;18.40;44.50
49379;DHT22;35254;47.990;-1.608;2022-12-18T08:56:50;18.40;44.40
49379;DHT22;35254;47.990;-1.608;2022-12-18T08:59:17;18.50;45.10
49379;DHT22;35254;47.990;-1.608;2022-12-18T09:01:43;18.60;45.20
49379;DHT22;35254;47.990;-1.608;2022-12-18T09:04:09;18.60;46.30
49379;DHT22;35254;47.990;-1.608;2022-12-18T09:06:35;18.60;46.40
49379;DHT22;35254;47.990;-1.608;2022-12-18T09:09:02;18.60;47.30
49379;DHT22;35254;47.990;-1.608;2022-12-18T09:11:30;18.60;47.70
49379;DHT22;35254;47.990;-1.608;2022-12-18T09:13:57;18.60;51.00
49379;DHT22;35254;47.990;-1.608;2022-12-18T09:16:24;18.60;51.70
49379;DHT22;35254;47.990;-1.608;2022-12-18T09:18:51;18.70;51.00
49379;DHT22;35254;47.990;-1.608;2022-12-18T09:21:19;18.60;48.60
49379;DHT22;35254;47.990;-1.608;2022-12-18T09:23:49;18.60;50.00
49379;DHT22;35254;47.990;-1.608;2022-12-18T09:26:15;18.70;51.20
49379;DHT22;35254;47.990;-1.608;2022-12-18T09:28:42;18.70;51.10
49379;DHT22;35254;47.990;-1.608;2022-12-18T09:31:10;18.70;50.40
49379;DHT22;35254;47.990;-1.608;2022-12-18T09:33:36;18.70;50.40
49379;DHT22;35254;47.990;-1.608;2022-12-18T09:36:04;18.80;51.50
49379;DHT22;35254;47.990;-1.608;2022-12-18T09:38:30;18.80;52.40
49379;DHT22;35254;47.990;-1.608;2022-12-18T09:43:51;18.90;51.30
49379;DHT22;35254;47.990;-1.608;2022-12-18T09:46:23;18.90;51.50
49379;DHT22;35254;47.990;-1.608;2022-12-18T09:48:54;18.90;51.90
49379;DHT22;35254;47.990;-1.608;2022-12-18T09:51:24;18.90;51.60
49379;DHT22;35254;47.990;-1.608;2022-12-18T09:54:01;18.90;51.20
49379;DHT22;35254;47.990;-1.608;2022-12-18T09:56:34;18.90;50.80
49379;DHT22;35254;47.990;-1.608;2022-12-18T09:59:02;18.90;50.90
49379;DHT22;35254;47.990;-1.608;2022-12-18T10:01:29;18.80;50.80
49379;DHT22;35254;47.990;-1.608;2022-12-18T10:03:56;18.90;50.60
49379;DHT22;35254;47.990;-1.608;2022-12-18T10:06:38;18.90;50.90
49379;DHT22;35254;47.990;-1.608;2022-12-18T10:12:28;18.80;51.20
49379;DHT22;35254;47.990;-1.608;2022-12-18T10:15:07;18.80;51.90
49379;DHT22;35254;47.990;-1.608;2022-12-18T10:20:16;18.90;52.70
49379;DHT22;35254;47.990;-1.608;2022-12-18T10:23:08;18.90;54.10
49379;DHT22;35254;47.990;-1.608;2022-12-18T10:25:53;18.90;52.50
49379;DHT22;35254;47.990;-1.608;2022-12-18T10:28:21;18.90;51.80
49379;DHT22;35254;47.990;-1.608;2022-12-18T10:30:48;18.80;52.10
49379;DHT22;35254;47.990;-1.608;2022-12-18T10:33:16;18.90;50.40
49379;DHT22;35254;47.990;-1.608;2022-12-18T10:35:43;18.90;49.20
49379;DHT22;35254;47.990;-1.608;2022-12-18T10:43:42;18.70;47.70
49379;DHT22;35254;47.990;-1.608;2022-12-18T10:48:37;18.70;47.60
49379;DHT22;35254;47.990;-1.608;2022-12-18T10:51:06;18.80;47.30
49379;DHT22;35254;47.990;-1.608;2022-12-18T10:53:35;18.80;46.90
49379;DHT22;35254;47.990;-1.608;2022-12-18T10:56:03;18.80;46.70
49379;DHT22;35254;47.990;-1.608;2022-12-18T10:58:35;18.80;47.70
49379;DHT22;35254;47.990;-1.608;2022-12-18T11:01:05;18.80;47.60
49379;DHT22;35254;47.990;-1.608;2022-12-18T11:06:11;18.80;47.00
49379;DHT22;35254;47.990;-1.608;2022-12-18T11:08:37;18.80;46.90
49379;DHT22;35254;47.990;-1.608;2022-12-18T11:11:06;18.80;46.50
49379;DHT22;35254;47.990;-1.608;2022-12-18T11:13:33;18.80;46.20
49379;DHT22;35254;47.990;-1.608;2022-12-18T11:15:59;18.70;45.90
49379;DHT22;35254;47.990;-1.608;2022-12-18T11:18:33;18.70;45.70
49379;DHT22;35254;47.990;-1.608;2022-12-18T11:21:11;18.70;45.60
49379;DHT22;35254;47.990;-1.608;2022-12-18T11:23:49;18.70;45.10
49379;DHT22;35254;47.990;-1.608;2022-12-18T11:26:15;18.70;44.80
49379;DHT22;35254;47.990;-1.608;2022-12-18T11:28:47;18.70;44.80
49379;DHT22;35254;47.990;-1.608;2022-12-18T11:31:29;18.70;44.70
49379;DHT22;35254;47.990;-1.608;2022-12-18T11:34:21;18.70;44.60
49379;DHT22;35254;47.990;-1.608;2022-12-18T11:36:48;18.70;44.50
49379;DHT22;35254;47.990;-1.608;2022-12-18T11:45:03;18.70;44.10
49379;DHT22;35254;47.990;-1.608;2022-12-18T11:50:17;18.70;43.90
49379;DHT22;35254;47.990;-1.608;2022-12-18T11:52:44;18.70;43.60
49379;DHT22;35254;47.990;-1.608;2022-12-18T11:55:14;18.70;43.50
49379;DHT22;35254;47.990;-1.608;2022-12-18T12:04:04;18.70;43.10
49379;DHT22;35254;47.990;-1.608;2022-12-18T12:12:01;18.60;42.70
49379;DHT22;35254;47.990;-1.608;2022-12-18T12:17:42;18.60;42.60
49379;DHT22;35254;47.990;-1.608;2022-12-18T12:20:25;18.60;42.60
49379;DHT22;35254;47.990;-1.608;2022-12-18T12:25:51;18.50;42.40
49379;DHT22;35254;47.990;-1.608;2022-12-18T12:39:14;18.50;42.30
49379;DHT22;35254;47.990;-1.608;2022-12-18T12:41:42;18.40;42.30
49379;DHT22;35254;47.990;-1.608;2022-12-18T12:44:45;18.40;42.20
49379;DHT22;35254;47.990;-1.608;2022-12-18T12:47:39;18.40;42.10
49379;DHT22;35254;47.990;-1.608;2022-12-18T12:50:14;18.50;41.90
49379;DHT22;35254;47.990;-1.608;2022-12-18T12:52:53;18.40;41.80
49379;DHT22;35254;47.990;-1.608;2022-12-18T12:55:24;18.40;41.90
49379;DHT22;35254;47.990;-1.608;2022-12-18T13:00:36;18.40;42.00
49379;DHT22;35254;47.990;-1.608;2022-12-18T13:03:46;18.40;41.80
49379;DHT22;35254;47.990;-1.608;2022-12-18T13:06:19;18.40;41.90
49379;DHT22;35254;47.990;-1.608;2022-12-18T13:08:59;18.30;42.10
49379;DHT22;35254;47.990;-1.608;2022-12-18T13:11:46;18.40;41.90
49379;DHT22;35254;47.990;-1.608;2022-12-18T13:14:31;18.40;41.80
49379;DHT22;35254;47.990;-1.608;2022-12-18T13:19:56;18.30;42.10
49379;DHT22;35254;47.990;-1.608;2022-12-18T13:22:44;18.30;42.00
49379;DHT22;35254;47.990;-1.608;2022-12-18T13:25:29;18.30;42.30
49379;DHT22;35254;47.990;-1.608;2022-12-18T13:30:57;18.40;42.60
49379;DHT22;35254;47.990;-1.608;2022-12-18T13:43:31;18.30;42.70
49379;DHT22;35254;47.990;-1.608;2022-12-18T13:46:24;18.30;42.60
49379;DHT22;35254;47.990;-1.608;2022-12-18T13:51:34;18.40;42.40
49379;DHT22;35254;47.990;-1.608;2022-12-18T13:54:17;18.30;42.70
49379;DHT22;35254;47.990;-1.608;2022-12-18T13:56:45;18.20;42.70
49379;DHT22;35254;47.990;-1.608;2022-12-18T13:59:20;18.20;43.20
49379;DHT22;35254;47.990;-1.608;2022-12-18T14:04:24;18.30;42.30
49379;DHT22;35254;47.990;-1.608;2022-12-18T14:06:54;18.20;42.10
49379;DHT22;35254;47.990;-1.608;2022-12-18T14:09:26;18.20;42.20
49379;DHT22;35254;47.990;-1.608;2022-12-18T14:11:53;18.20;42.10
49379;DHT22;35254;47.990;-1.608;2022-12-18T14:14:42;18.20;42.20
49379;DHT22;35254;47.990;-1.608;2022-12-18T14:17:12;18.20;42.20
49379;DHT22;35254;47.990;-1.608;2022-12-18T14:19:42;18.20;42.30
49379;DHT22;35254;47.990;-1.608;2022-12-18T14:22:24;18.20;42.30
49379;DHT22;35254;47.990;-1.608;2022-12-18T14:27:43;18.20;42.70
49379;DHT22;35254;47.990;-1.608;2022-12-18T14:30:25;18.20;42.80
49379;DHT22;35254;47.990;-1.608;2022-12-18T14:35:27;18.20;42.50
49379;DHT22;35254;47.990;-1.608;2022-12-18T14:37:52;18.20;42.50
49379;DHT22;35254;47.990;-1.608;2022-12-18T14:40:18;18.20;42.60
49379;DHT22;35254;47.990;-1.608;2022-12-18T14:42:44;18.20;42.70
49379;DHT22;35254;47.990;-1.608;2022-12-18T14:47:58;18.10;42.50
49379;DHT22;35254;47.990;-1.608;2022-12-18T14:50:25;18.10;43.00
49379;DHT22;35254;47.990;-1.608;2022-12-18T14:52:51;18.10;42.60
49379;DHT22;35254;47.990;-1.608;2022-12-18T14:55:18;18.10;42.50
49379;DHT22;35254;47.990;-1.608;2022-12-18T14:57:45;18.10;42.60
49379;DHT22;35254;47.990;-1.608;2022-12-18T15:00:22;18.10;42.80
49379;DHT22;35254;47.990;-1.608;2022-12-18T15:02:52;18.10;42.80
49379;DHT22;35254;47.990;-1.608;2022-12-18T15:05:29;18.10;42.60
49379;DHT22;35254;47.990;-1.608;2022-12-18T15:07:58;18.10;42.50
49379;DHT22;35254;47.990;-1.608;2022-12-18T15:10:30;18.10;42.30
49379;DHT22;35254;47.990;-1.608;2022-12-18T15:18:03;18.00;42.40
49379;DHT22;35254;47.990;-1.608;2022-12-18T15:20:40;18.10;42.10
49379;DHT22;35254;47.990;-1.608;2022-12-18T15:26:14;18.00;42.40
49379;DHT22;35254;47.990;-1.608;2022-12-18T15:33:36;18.00;42.80
49379;DHT22;35254;47.990;-1.608;2022-12-18T15:36:09;18.00;42.90
49379;DHT22;35254;47.990;-1.608;2022-12-18T15:38:36;18.00;42.50
49379;DHT22;35254;47.990;-1.608;2022-12-18T15:41:02;18.00;42.50
49379;DHT22;35254;47.990;-1.608;2022-12-18T15:43:28;18.00;42.60
49379;DHT22;35254;47.990;-1.608;2022-12-18T15:46:05;18.00;42.20
49379;DHT22;35254;47.990;-1.608;2022-12-18T15:48:33;18.00;42.30
49379;DHT22;35254;47.990;-1.608;2022-12-18T15:51:00;18.00;41.70
49379;DHT22;35254;47.990;-1.608;2022-12-18T15:53:30;18.00;42.40
49379;DHT22;35254;47.990;-1.608;2022-12-18T15:55:58;18.00;42.20
49379;DHT22;35254;47.990;-1.608;2022-12-18T15:58:42;18.00;42.40
49379;DHT22;35254;47.990;-1.608;2022-12-18T16:01:09;18.00;42.00
49379;DHT22;35254;47.990;-1.608;2022-12-18T16:03:35;18.00;42.10
49379;DHT22;35254;47.990;-1.608;2022-12-18T16:06:01;18.00;41.90
49379;DHT22;35254;47.990;-1.608;2022-12-18T16:08:29;18.00;42.00
49379;DHT22;35254;47.990;-1.608;2022-12-18T16:10:56;17.90;42.30
49379;DHT22;35254;47.990;-1.608;2022-12-18T16:13:22;17.90;42.60
49379;DHT22;35254;47.990;-1.608;2022-12-18T16:15:48;17.90;42.90
49379;DHT22;35254;47.990;-1.608;2022-12-18T16:18:14;17.90;43.00
49379;DHT22;35254;47.990;-1.608;2022-12-18T16:20:40;17.90;42.90
49379;DHT22;35254;47.990;-1.608;2022-12-18T16:23:06;17.90;42.90
49379;DHT22;35254;47.990;-1.608;2022-12-18T16:25:32;18.00;43.00
49379;DHT22;35254;47.990;-1.608;2022-12-18T16:27:58;18.00;43.10
49379;DHT22;35254;47.990;-1.608;2022-12-18T16:30:29;18.00;43.10
49379;DHT22;35254;47.990;-1.608;2022-12-18T16:32:58;18.00;43.00
49379;DHT22;35254;47.990;-1.608;2022-12-18T16:35:25;18.00;43.30
49379;DHT22;35254;47.990;-1.608;2022-12-18T16:37:51;18.00;43.60
49379;DHT22;35254;47.990;-1.608;2022-12-18T16:40:17;18.00;43.60
49379;DHT22;35254;47.990;-1.608;2022-12-18T16:42:44;18.10;43.60
49379;DHT22;35254;47.990;-1.608;2022-12-18T16:45:16;18.00;43.50
49379;DHT22;35254;47.990;-1.608;2022-12-18T16:47:41;18.00;43.10
49379;DHT22;35254;47.990;-1.608;2022-12-18T16:50:08;18.00;43.50
49379;DHT22;35254;47.990;-1.608;2022-12-18T16:52:34;18.00;43.30
49379;DHT22;35254;47.990;-1.608;2022-12-18T16:55:00;18.00;43.30
49379;DHT22;35254;47.990;-1.608;2022-12-18T16:57:25;18.00;43.40
49379;DHT22;35254;47.990;-1.608;2022-12-18T16:59:51;17.90;44.90
49379;DHT22;35254;47.990;-1.608;2022-12-18T17:02:22;17.80;45.70
49379;DHT22;35254;47.990;-1.608;2022-12-18T17:04:48;17.70;45.80
49379;DHT22;35254;47.990;-1.608;2022-12-18T17:07:14;17.80;44.40
49379;DHT22;35254;47.990;-1.608;2022-12-18T17:09:41;17.80;44.10
49379;DHT22;35254;47.990;-1.608;2022-12-18T17:12:07;17.90;44.00
49379;DHT22;35254;47.990;-1.608;2022-12-18T17:14:34;17.90;44.00
49379;DHT22;35254;47.990;-1.608;2022-12-18T17:17:00;17.90;44.00
49379;DHT22;35254;47.990;-1.608;2022-12-18T17:19:26;17.90;43.90
49379;DHT22;35254;47.990;-1.608;2022-12-18T17:21:52;17.90;43.80
49379;DHT22;35254;47.990;-1.608;2022-12-18T17:24:19;18.00;43.70
49379;DHT22;35254;47.990;-1.608;2022-12-18T17:26:45;18.00;43.90
49379;DHT22;35254;47.990;-1.608;2022-12-18T17:29:13;17.90;44.20
49379;DHT22;35254;47.990;-1.608;2022-12-18T17:31:39;17.90;44.60
49379;DHT22;35254;47.990;-1.608;2022-12-18T17:34:05;17.90;44.20